sensor_id;sensor_type;location;lat;lon;timestamp;P1;durP1;ratioP1;P2;durP2;ratioP2
78989;SDS011;68390;52.130;21.218;2023-08-08T00:00:36;5.88;;;2.40;;
78989;SDS011;68390;52.130;21.218;2023-08-08T00:03:01;3.63;;;2.45;;
78989;SDS011;68390;52.130;21.218;2023-08-08T00:05:27;4.13;;;2.42;;
78989;SDS011;68390;52.130;21.218;2023-08-08T00:07:52;5.20;;;2.50;;
78989;SDS011;68390;52.130;21.218;2023-08-08T00:10:17;4.97;;;2.22;;
78989;SDS011;68390;52.130;21.218;2023-08-08T00:12:43;4.43;;;2.17;;
78989;SDS011;68390;52.130;21.218;2023-08-08T00:15:08;4.53;;;2.30;;
78989;SDS011;68390;52.130;21.218;2023-08-08T00:17:34;3.85;;;2.33;;
78989;SDS011;68390;52.130;21.218;2023-08-08T00:19:59;6.22;;;2.30;;
78989;SDS011;68390;52.130;21.218;2023-08-08T00:22:25;5.18;;;2.30;;
78989;SDS011;68390;52.130;21.218;2023-08-08T00:24:50;6.43;;;2.25;;
78989;SDS011;68390;52.130;21.218;2023-08-08T00:27:15;6.50;;;2.47;;
78989;SDS011;68390;52.130;21.218;2023-08-08T00:29:41;5.03;;;2.25;;
78989;SDS011;68390;52.130;21.218;2023-08-08T00:32:06;4.53;;;1.98;;
78989;SDS011;68390;52.130;21.218;2023-08-08T00:34:32;6.55;;;2.53;;
78989;SDS011;68390;52.130;21.218;2023-08-08T00:36:57;4.15;;;2.30;;
78989;SDS011;68390;52.130;21.218;2023-08-08T00:39:22;5.30;;;2.23;;
78989;SDS011;68390;52.130;21.218;2023-08-08T00:41:48;5.03;;;2.27;;
78989;SDS011;68390;52.130;21.218;2023-08-08T00:44:13;3.53;;;2.00;;
78989;SDS011;68390;52.130;21.218;2023-08-08T00:46:38;3.95;;;2.00;;
78989;SDS011;68390;52.130;21.218;2023-08-08T00:49:04;7.00;;;2.35;;
78989;SDS011;68390;52.130;21.218;2023-08-08T00:51:30;6.40;;;2.40;;
78989;SDS011;68390;52.130;21.218;2023-08-08T00:53:55;6.40;;;2.50;;
78989;SDS011;68390;52.130;21.218;2023-08-08T00:56:22;4.47;;;2.40;;
78989;SDS011;68390;52.130;21.218;2023-08-08T00:58:48;7.68;;;2.45;;
78989;SDS011;68390;52.130;21.218;2023-08-08T01:01:15;7.72;;;2.35;;
78989;SDS011;68390;52.130;21.218;2023-08-08T01:03:42;4.53;;;2.40;;
78989;SDS011;68390;52.130;21.218;2023-08-08T01:08:55;3.83;;;2.00;;
78989;SDS011;68390;52.130;21.218;2023-08-08T01:11:28;9.55;;;2.20;;
78989;SDS011;68390;52.130;21.218;2023-08-08T01:13:55;4.88;;;1.98;;
78989;SDS011;68390;52.130;21.218;2023-08-08T01:16:21;6.50;;;2.05;;
78989;SDS011;68390;52.130;21.218;2023-08-08T01:18:48;5.45;;;2.42;;
78989;SDS011;68390;52.130;21.218;2023-08-08T01:21:15;6.18;;;2.40;;
78989;SDS011;68390;52.130;21.218;2023-08-08T01:23:46;8.80;;;2.50;;
78989;SDS011;68390;52.130;21.218;2023-08-08T01:26:18;5.93;;;2.10;;
78989;SDS011;68390;52.130;21.218;2023-08-08T01:28:45;9.93;;;2.58;;
78989;SDS011;68390;52.130;21.218;2023-08-08T01:31:13;6.60;;;2.35;;
78989;SDS011;68390;52.130;21.218;2023-08-08T01:33:39;6.40;;;2.03;;
78989;SDS011;68390;52.130;21.218;2023-08-08T01:36:13;4.82;;;2.30;;
78989;SDS011;68390;52.130;21.218;2023-08-08T01:38:46;5.88;;;2.58;;
78989;SDS011;68390;52.130;21.218;2023-08-08T01:41:13;5.43;;;2.33;;
78989;SDS011;68390;52.130;21.218;2023-08-08T01:43:40;8.43;;;2.33;;
78989;SDS011;68390;52.130;21.218;2023-08-08T01:46:06;6.43;;;2.20;;
78989;SDS011;68390;52.130;21.218;2023-08-08T01:48:33;7.63;;;2.10;;
78989;SDS011;68390;52.130;21.218;2023-08-08T01:50:58;6.60;;;2.30;;
78989;SDS011;68390;52.130;21.218;2023-08-08T01:53:24;6.65;;;2.35;;
78989;SDS011;68390;52.130;21.218;2023-08-08T01:55:50;7.10;;;2.50;;
78989;SDS011;68390;52.130;21.218;2023-08-08T01:58:15;6.28;;;2.15;;
78989;SDS011;68390;52.130;21.218;2023-08-08T02:00:40;7.53;;;2.30;;
78989;SDS011;68390;52.130;21.218;2023-08-08T02:03:09;4.55;;;2.17;;
78989;SDS011;68390;52.130;21.218;2023-08-08T02:05:34;6.35;;;2.28;;
78989;SDS011;68390;52.130;21.218;2023-08-08T02:07:59;4.63;;;2.00;;
78989;SDS011;68390;52.130;21.218;2023-08-08T02:10:25;5.45;;;2.00;;
78989;SDS011;68390;52.130;21.218;2023-08-08T02:12:50;5.70;;;2.35;;
78989;SDS011;68390;52.130;21.218;2023-08-08T02:15:15;7.63;;;2.20;;
78989;SDS011;68390;52.130;21.218;2023-08-08T02:17:41;4.65;;;2.13;;
78989;SDS011;68390;52.130;21.218;2023-08-08T02:20:06;13.23;;;2.90;;
78989;SDS011;68390;52.130;21.218;2023-08-08T02:22:32;8.70;;;2.17;;
78989;SDS011;68390;52.130;21.218;2023-08-08T02:24:57;5.07;;;2.20;;
78989;SDS011;68390;52.130;21.218;2023-08-08T02:27:23;7.18;;;2.97;;
78989;SDS011;68390;52.130;21.218;2023-08-08T02:29:48;7.23;;;3.10;;
78989;SDS011;68390;52.130;21.218;2023-08-08T02:32:14;3.90;;;2.10;;
78989;SDS011;68390;52.130;21.218;2023-08-08T02:34:39;6.38;;;2.20;;
78989;SDS011;68390;52.130;21.218;2023-08-08T02:37:04;7.77;;;2.67;;
78989;SDS011;68390;52.130;21.218;2023-08-08T02:39:30;7.65;;;2.28;;
78989;SDS011;68390;52.130;21.218;2023-08-08T02:41:55;4.78;;;1.90;;
78989;SDS011;68390;52.130;21.218;2023-08-08T02:44:20;5.60;;;2.17;;
78989;SDS011;68390;52.130;21.218;2023-08-08T02:46:47;7.35;;;2.67;;
78989;SDS011;68390;52.130;21.218;2023-08-08T02:49:13;4.97;;;2.47;;
78989;SDS011;68390;52.130;21.218;2023-08-08T02:51:38;5.28;;;2.40;;
78989;SDS011;68390;52.130;21.218;2023-08-08T02:54:03;4.28;;;2.00;;
78989;SDS011;68390;52.130;21.218;2023-08-08T02:56:29;4.53;;;2.30;;
78989;SDS011;68390;52.130;21.218;2023-08-08T02:58:54;5.85;;;2.35;;
78989;SDS011;68390;52.130;21.218;2023-08-08T03:01:19;5.88;;;2.40;;
78989;SDS011;68390;52.130;21.218;2023-08-08T03:03:45;4.13;;;2.20;;
78989;SDS011;68390;52.130;21.218;2023-08-08T03:06:10;6.30;;;2.57;;
78989;SDS011;68390;52.130;21.218;2023-08-08T03:08:35;4.22;;;2.42;;
78989;SDS011;68390;52.130;21.218;2023-08-08T03:11:01;5.93;;;2.47;;
78989;SDS011;68390;52.130;21.218;2023-08-08T03:13:26;5.47;;;2.22;;
78989;SDS011;68390;52.130;21.218;2023-08-08T03:15:52;7.30;;;2.45;;
78989;SDS011;68390;52.130;21.218;2023-08-08T03:18:19;8.27;;;2.40;;
78989;SDS011;68390;52.130;21.218;2023-08-08T03:20:44;20.00;;;3.97;;
78989;SDS011;68390;52.130;21.218;2023-08-08T03:23:10;13.73;;;2.90;;
78989;SDS011;68390;52.130;21.218;2023-08-08T03:25:35;5.68;;;2.40;;
78989;SDS011;68390;52.130;21.218;2023-08-08T03:28:00;8.75;;;2.40;;
78989;SDS011;68390;52.130;21.218;2023-08-08T03:30:26;7.78;;;2.38;;
78989;SDS011;68390;52.130;21.218;2023-08-08T03:32:51;10.25;;;2.38;;
78989;SDS011;68390;52.130;21.218;2023-08-08T03:35:16;9.63;;;2.45;;
78989;SDS011;68390;52.130;21.218;2023-08-08T03:37:42;5.13;;;2.70;;
78989;SDS011;68390;52.130;21.218;2023-08-08T03:40:07;7.53;;;2.47;;
78989;SDS011;68390;52.130;21.218;2023-08-08T03:42:33;7.93;;;2.85;;
78989;SDS011;68390;52.130;21.218;2023-08-08T03:44:59;13.07;;;3.17;;
78989;SDS011;68390;52.130;21.218;2023-08-08T03:47:24;8.00;;;2.30;;
78989;SDS011;68390;52.130;21.218;2023-08-08T03:49:50;11.52;;;3.28;;
78989;SDS011;68390;52.130;21.218;2023-08-08T03:52:15;10.52;;;2.45;;
78989;SDS011;68390;52.130;21.218;2023-08-08T03:54:41;9.25;;;2.60;;
78989;SDS011;68390;52.130;21.218;2023-08-08T03:57:06;4.53;;;2.15;;
78989;SDS011;68390;52.130;21.218;2023-08-08T03:59:31;4.72;;;2.28;;
78989;SDS011;68390;52.130;21.218;2023-08-08T04:01:57;5.38;;;2.75;;
78989;SDS011;68390;52.130;21.218;2023-08-08T04:04:22;5.97;;;2.20;;
78989;SDS011;68390;52.130;21.218;2023-08-08T04:06:47;6.35;;;2.17;;
78989;SDS011;68390;52.130;21.218;2023-08-08T04:09:13;3.47;;;2.10;;
78989;SDS011;68390;52.130;21.218;2023-08-08T04:11:38;5.18;;;2.13;;
78989;SDS011;68390;52.130;21.218;2023-08-08T04:14:03;4.85;;;2.10;;
78989;SDS011;68390;52.130;21.218;2023-08-08T04:16:29;8.40;;;2.53;;
78989;SDS011;68390;52.130;21.218;2023-08-08T04:18:54;5.13;;;2.45;;
78989;SDS011;68390;52.130;21.218;2023-08-08T04:21:20;4.77;;;2.20;;
78989;SDS011;68390;52.130;21.218;2023-08-08T04:23:45;4.25;;;2.40;;
78989;SDS011;68390;52.130;21.218;2023-08-08T04:26:10;7.47;;;2.30;;
78989;SDS011;68390;52.130;21.218;2023-08-08T04:28:36;6.50;;;2.30;;
78989;SDS011;68390;52.130;21.218;2023-08-08T04:31:01;5.07;;;2.17;;
78989;SDS011;68390;52.130;21.218;2023-08-08T04:33:27;6.40;;;2.40;;
78989;SDS011;68390;52.130;21.218;2023-08-08T04:35:52;5.82;;;2.30;;
78989;SDS011;68390;52.130;21.218;2023-08-08T04:38:17;7.87;;;2.50;;
78989;SDS011;68390;52.130;21.218;2023-08-08T04:40:43;5.18;;;2.17;;
78989;SDS011;68390;52.130;21.218;2023-08-08T04:43:08;6.70;;;2.33;;
78989;SDS011;68390;52.130;21.218;2023-08-08T04:45:33;5.27;;;2.40;;
78989;SDS011;68390;52.130;21.218;2023-08-08T04:47:59;6.75;;;2.47;;
78989;SDS011;68390;52.130;21.218;2023-08-08T04:50:24;6.20;;;2.30;;
78989;SDS011;68390;52.130;21.218;2023-08-08T04:52:49;5.47;;;2.22;;
78989;SDS011;68390;52.130;21.218;2023-08-08T04:55:15;5.43;;;2.20;;
78989;SDS011;68390;52.130;21.218;2023-08-08T04:57:40;12.88;;;2.42;;
78989;SDS011;68390;52.130;21.218;2023-08-08T05:00:06;7.57;;;2.67;;
78989;SDS011;68390;52.130;21.218;2023-08-08T05:02:33;14.00;;;3.35;;
78989;SDS011;68390;52.130;21.218;2023-08-08T05:04:59;8.93;;;2.58;;
78989;SDS011;68390;52.130;21.218;2023-08-08T05:07:25;4.65;;;2.03;;
78989;SDS011;68390;52.130;21.218;2023-08-08T05:09:51;8.13;;;2.08;;
78989;SDS011;68390;52.130;21.218;2023-08-08T05:12:17;6.25;;;2.40;;
78989;SDS011;68390;52.130;21.218;2023-08-08T05:14:42;6.80;;;2.40;;
78989;SDS011;68390;52.130;21.218;2023-08-08T05:17:07;6.05;;;2.65;;
78989;SDS011;68390;52.130;21.218;2023-08-08T05:19:33;7.78;;;2.20;;
78989;SDS011;68390;52.130;21.218;2023-08-08T05:21:59;5.97;;;2.20;;
78989;SDS011;68390;52.130;21.218;2023-08-08T05:24:24;7.75;;;2.60;;
78989;SDS011;68390;52.130;21.218;2023-08-08T05:26:50;6.22;;;2.25;;
78989;SDS011;68390;52.130;21.218;2023-08-08T05:29:15;6.25;;;2.40;;
78989;SDS011;68390;52.130;21.218;2023-08-08T05:31:40;9.10;;;2.33;;
78989;SDS011;68390;52.130;21.218;2023-08-08T05:34:06;6.00;;;2.20;;
78989;SDS011;68390;52.130;21.218;2023-08-08T05:36:32;6.53;;;2.60;;
78989;SDS011;68390;52.130;21.218;2023-08-08T05:38:58;5.07;;;2.10;;
78989;SDS011;68390;52.130;21.218;2023-08-08T05:41:23;4.03;;;2.20;;
78989;SDS011;68390;52.130;21.218;2023-08-08T05:43:48;6.10;;;2.35;;
78989;SDS011;68390;52.130;21.218;2023-08-08T05:46:14;7.00;;;2.30;;
78989;SDS011;68390;52.130;21.218;2023-08-08T05:48:39;5.67;;;2.10;;
78989;SDS011;68390;52.130;21.218;2023-08-08T05:51:04;7.97;;;2.38;;
78989;SDS011;68390;52.130;21.218;2023-08-08T05:53:31;5.82;;;2.20;;
78989;SDS011;68390;52.130;21.218;2023-08-08T05:55:57;6.43;;;2.67;;
78989;SDS011;68390;52.130;21.218;2023-08-08T05:58:22;8.38;;;2.17;;
78989;SDS011;68390;52.130;21.218;2023-08-08T06:00:47;7.20;;;2.33;;
78989;SDS011;68390;52.130;21.218;2023-08-08T06:03:13;6.53;;;2.55;;
78989;SDS011;68390;52.130;21.218;2023-08-08T06:05:38;4.18;;;2.10;;
78989;SDS011;68390;52.130;21.218;2023-08-08T06:08:04;6.50;;;2.67;;
78989;SDS011;68390;52.130;21.218;2023-08-08T06:10:32;6.80;;;2.58;;
78989;SDS011;68390;52.130;21.218;2023-08-08T06:12:57;7.60;;;2.33;;
78989;SDS011;68390;52.130;21.218;2023-08-08T06:15:22;6.25;;;2.10;;
78989;SDS011;68390;52.130;21.218;2023-08-08T06:17:48;5.82;;;1.80;;
78989;SDS011;68390;52.130;21.218;2023-08-08T06:20:13;9.40;;;2.80;;
78989;SDS011;68390;52.130;21.218;2023-08-08T06:22:39;6.28;;;2.30;;
78989;SDS011;68390;52.130;21.218;2023-08-08T06:25:06;4.20;;;2.33;;
78989;SDS011;68390;52.130;21.218;2023-08-08T06:27:31;5.15;;;3.25;;
78989;SDS011;68390;52.130;21.218;2023-08-08T06:29:57;7.50;;;2.50;;
78989;SDS011;68390;52.130;21.218;2023-08-08T06:32:22;8.48;;;2.60;;
78989;SDS011;68390;52.130;21.218;2023-08-08T06:34:47;11.10;;;2.75;;
78989;SDS011;68390;52.130;21.218;2023-08-08T06:37:13;10.77;;;3.00;;
78989;SDS011;68390;52.130;21.218;2023-08-08T06:39:38;8.73;;;2.80;;
78989;SDS011;68390;52.130;21.218;2023-08-08T06:42:05;6.10;;;2.20;;
78989;SDS011;68390;52.130;21.218;2023-08-08T06:44:40;9.80;;;2.30;;
78989;SDS011;68390;52.130;21.218;2023-08-08T06:47:06;6.20;;;2.13;;
78989;SDS011;68390;52.130;21.218;2023-08-08T06:49:32;7.63;;;2.30;;
78989;SDS011;68390;52.130;21.218;2023-08-08T06:51:57;4.77;;;2.30;;
78989;SDS011;68390;52.130;21.218;2023-08-08T06:54:22;4.45;;;2.45;;
78989;SDS011;68390;52.130;21.218;2023-08-08T06:56:48;7.35;;;2.17;;
78989;SDS011;68390;52.130;21.218;2023-08-08T06:59:13;6.13;;;2.40;;
78989;SDS011;68390;52.130;21.218;2023-08-08T07:01:38;6.85;;;2.28;;
78989;SDS011;68390;52.130;21.218;2023-08-08T07:04:04;9.13;;;2.90;;
78989;SDS011;68390;52.130;21.218;2023-08-08T07:06:29;6.07;;;2.30;;
78989;SDS011;68390;52.130;21.218;2023-08-08T07:08:54;6.88;;;2.33;;
78989;SDS011;68390;52.130;21.218;2023-08-08T07:11:20;10.13;;;2.75;;
78989;SDS011;68390;52.130;21.218;2023-08-08T07:13:45;6.40;;;2.50;;
78989;SDS011;68390;52.130;21.218;2023-08-08T07:16:11;4.63;;;2.08;;
78989;SDS011;68390;52.130;21.218;2023-08-08T07:18:36;7.10;;;2.40;;
78989;SDS011;68390;52.130;21.218;2023-08-08T07:21:02;8.20;;;2.10;;
78989;SDS011;68390;52.130;21.218;2023-08-08T07:23:28;5.15;;;2.40;;
78989;SDS011;68390;52.130;21.218;2023-08-08T07:25:53;6.95;;;2.55;;
78989;SDS011;68390;52.130;21.218;2023-08-08T07:28:19;7.05;;;2.30;;
78989;SDS011;68390;52.130;21.218;2023-08-08T07:30:44;6.72;;;2.30;;
78989;SDS011;68390;52.130;21.218;2023-08-08T07:33:10;4.35;;;2.15;;
78989;SDS011;68390;52.130;21.218;2023-08-08T07:35:35;4.90;;;2.30;;
78989;SDS011;68390;52.130;21.218;2023-08-08T07:38:00;5.13;;;2.45;;
78989;SDS011;68390;52.130;21.218;2023-08-08T07:40:26;4.13;;;2.30;;
78989;SDS011;68390;52.130;21.218;2023-08-08T07:42:52;5.43;;;2.10;;
78989;SDS011;68390;52.130;21.218;2023-08-08T07:45:17;5.43;;;1.98;;
78989;SDS011;68390;52.130;21.218;2023-08-08T07:47:43;4.03;;;2.10;;
78989;SDS011;68390;52.130;21.218;2023-08-08T07:50:08;7.60;;;2.40;;
78989;SDS011;68390;52.130;21.218;2023-08-08T07:52:34;6.28;;;2.38;;
78989;SDS011;68390;52.130;21.218;2023-08-08T07:55:00;6.07;;;2.10;;
78989;SDS011;68390;52.130;21.218;2023-08-08T07:57:26;7.57;;;2.92;;
78989;SDS011;68390;52.130;21.218;2023-08-08T07:59:52;7.65;;;2.47;;
78989;SDS011;68390;52.130;21.218;2023-08-08T08:02:17;4.22;;;2.13;;
78989;SDS011;68390;52.130;21.218;2023-08-08T08:04:43;7.30;;;2.95;;
78989;SDS011;68390;52.130;21.218;2023-08-08T08:07:08;8.13;;;2.20;;
78989;SDS011;68390;52.130;21.218;2023-08-08T08:09:33;8.88;;;2.10;;
78989;SDS011;68390;52.130;21.218;2023-08-08T08:11:59;3.70;;;2.00;;
78989;SDS011;68390;52.130;21.218;2023-08-08T08:14:24;4.28;;;2.10;;
78989;SDS011;68390;52.130;21.218;2023-08-08T08:16:50;6.10;;;2.38;;
78989;SDS011;68390;52.130;21.218;2023-08-08T08:19:16;6.60;;;2.25;;
78989;SDS011;68390;52.130;21.218;2023-08-08T08:21:41;4.65;;;1.83;;
78989;SDS011;68390;52.130;21.218;2023-08-08T08:24:06;6.07;;;2.67;;
78989;SDS011;68390;52.130;21.218;2023-08-08T08:26:32;5.18;;;1.95;;
78989;SDS011;68390;52.130;21.218;2023-08-08T08:28:57;6.85;;;2.08;;
78989;SDS011;68390;52.130;21.218;2023-08-08T08:31:23;5.65;;;2.10;;
78989;SDS011;68390;52.130;21.218;2023-08-08T08:33:48;7.53;;;2.30;;
78989;SDS011;68390;52.130;21.218;2023-08-08T08:36:14;5.57;;;2.30;;
78989;SDS011;68390;52.130;21.218;2023-08-08T08:38:39;4.93;;;2.30;;
78989;SDS011;68390;52.130;21.218;2023-08-08T08:41:05;5.47;;;2.20;;
78989;SDS011;68390;52.130;21.218;2023-08-08T08:43:31;7.68;;;2.20;;
78989;SDS011;68390;52.130;21.218;2023-08-08T08:45:57;4.20;;;2.20;;
78989;SDS011;68390;52.130;21.218;2023-08-08T08:48:26;4.50;;;2.30;;
78989;SDS011;68390;52.130;21.218;2023-08-08T08:50:51;4.97;;;2.20;;
78989;SDS011;68390;52.130;21.218;2023-08-08T08:53:16;4.60;;;2.20;;
78989;SDS011;68390;52.130;21.218;2023-08-08T08:55:43;8.13;;;2.15;;
78989;SDS011;68390;52.130;21.218;2023-08-08T08:58:09;4.43;;;2.20;;
78989;SDS011;68390;52.130;21.218;2023-08-08T09:00:35;6.05;;;2.30;;
78989;SDS011;68390;52.130;21.218;2023-08-08T09:03:01;5.32;;;2.10;;
78989;SDS011;68390;52.130;21.218;2023-08-08T09:05:27;7.63;;;2.50;;
78989;SDS011;68390;52.130;21.218;2023-08-08T09:07:52;5.40;;;2.13;;
78989;SDS011;68390;52.130;21.218;2023-08-08T09:10:18;6.93;;;1.98;;
78989;SDS011;68390;52.130;21.218;2023-08-08T09:12:44;4.43;;;1.70;;
78989;SDS011;68390;52.130;21.218;2023-08-08T09:15:13;3.40;;;1.77;;
78989;SDS011;68390;52.130;21.218;2023-08-08T09:17:42;6.25;;;2.20;;
78989;SDS011;68390;52.130;21.218;2023-08-08T09:20:09;6.63;;;1.98;;
78989;SDS011;68390;52.130;21.218;2023-08-08T09:22:36;3.97;;;1.75;;
78989;SDS011;68390;52.130;21.218;2023-08-08T09:25:02;5.03;;;2.05;;
78989;SDS011;68390;52.130;21.218;2023-08-08T09:27:28;6.38;;;2.40;;
78989;SDS011;68390;52.130;21.218;2023-08-08T09:29:54;3.25;;;1.95;;
78989;SDS011;68390;52.130;21.218;2023-08-08T09:32:20;4.00;;;2.00;;
78989;SDS011;68390;52.130;21.218;2023-08-08T09:34:45;7.28;;;2.30;;
78989;SDS011;68390;52.130;21.218;2023-08-08T09:37:11;5.55;;;2.13;;
78989;SDS011;68390;52.130;21.218;2023-08-08T09:39:36;5.55;;;2.00;;
78989;SDS011;68390;52.130;21.218;2023-08-08T09:42:02;5.22;;;2.00;;
78989;SDS011;68390;52.130;21.218;2023-08-08T09:44:31;4.63;;;2.00;;
78989;SDS011;68390;52.130;21.218;2023-08-08T09:47:00;5.40;;;2.00;;
78989;SDS011;68390;52.130;21.218;2023-08-08T09:49:25;4.03;;;1.98;;
78989;SDS011;68390;52.130;21.218;2023-08-08T09:51:51;2.75;;;1.75;;
78989;SDS011;68390;52.130;21.218;2023-08-08T09:54:17;5.90;;;2.00;;
78989;SDS011;68390;52.130;21.218;2023-08-08T09:56:43;3.83;;;1.73;;
78989;SDS011;68390;52.130;21.218;2023-08-08T09:59:09;4.20;;;1.80;;
78989;SDS011;68390;52.130;21.218;2023-08-08T10:01:34;3.75;;;1.70;;
78989;SDS011;68390;52.130;21.218;2023-08-08T10:04:00;3.75;;;1.90;;
78989;SDS011;68390;52.130;21.218;2023-08-08T10:06:28;4.70;;;1.90;;
78989;SDS011;68390;52.130;21.218;2023-08-08T10:08:53;4.07;;;1.90;;
78989;SDS011;68390;52.130;21.218;2023-08-08T10:11:20;4.65;;;1.95;;
78989;SDS011;68390;52.130;21.218;2023-08-08T10:13:49;2.85;;;1.60;;
78989;SDS011;68390;52.130;21.218;2023-08-08T10:18:44;4.63;;;1.90;;
78989;SDS011;68390;52.130;21.218;2023-08-08T10:21:11;3.50;;;1.65;;
78989;SDS011;68390;52.130;21.218;2023-08-08T10:23:38;4.03;;;1.73;;
78989;SDS011;68390;52.130;21.218;2023-08-08T10:26:04;4.47;;;1.80;;
78989;SDS011;68390;52.130;21.218;2023-08-08T10:28:42;3.28;;;1.63;;
78989;SDS011;68390;52.130;21.218;2023-08-08T10:31:19;4.10;;;1.90;;
78989;SDS011;68390;52.130;21.218;2023-08-08T10:33:46;5.50;;;1.80;;
78989;SDS011;68390;52.130;21.218;2023-08-08T10:36:11;4.32;;;1.90;;
78989;SDS011;68390;52.130;21.218;2023-08-08T10:38:42;4.55;;;1.90;;
78989;SDS011;68390;52.130;21.218;2023-08-08T10:41:10;3.97;;;1.83;;
78989;SDS011;68390;52.130;21.218;2023-08-08T10:43:37;3.65;;;1.50;;
78989;SDS011;68390;52.130;21.218;2023-08-08T10:46:03;6.03;;;1.92;;
78989;SDS011;68390;52.130;21.218;2023-08-08T10:48:29;5.75;;;1.63;;
78989;SDS011;68390;52.130;21.218;2023-08-08T10:50:58;4.85;;;1.90;;
78989;SDS011;68390;52.130;21.218;2023-08-08T10:53:25;4.00;;;2.00;;
78989;SDS011;68390;52.130;21.218;2023-08-08T10:55:56;8.15;;;1.80;;
78989;SDS011;68390;52.130;21.218;2023-08-08T10:58:39;4.68;;;1.98;;
78989;SDS011;68390;52.130;21.218;2023-08-08T11:01:06;4.35;;;1.92;;
78989;SDS011;68390;52.130;21.218;2023-08-08T11:03:36;6.80;;;1.80;;
78989;SDS011;68390;52.130;21.218;2023-08-08T11:06:03;2.63;;;1.70;;
78989;SDS011;68390;52.130;21.218;2023-08-08T11:08:31;3.40;;;1.73;;
78989;SDS011;68390;52.130;21.218;2023-08-08T11:10:57;5.22;;;1.70;;
78989;SDS011;68390;52.130;21.218;2023-08-08T11:13:23;3.58;;;1.50;;
78989;SDS011;68390;52.130;21.218;2023-08-08T11:15:48;6.97;;;1.65;;
78989;SDS011;68390;52.130;21.218;2023-08-08T11:18:13;4.18;;;1.63;;
78989;SDS011;68390;52.130;21.218;2023-08-08T11:20:39;2.70;;;1.50;;
78989;SDS011;68390;52.130;21.218;2023-08-08T11:23:05;5.57;;;1.63;;
78989;SDS011;68390;52.130;21.218;2023-08-08T11:25:35;6.60;;;2.03;;
78989;SDS011;68390;52.130;21.218;2023-08-08T11:28:01;3.97;;;1.52;;
78989;SDS011;68390;52.130;21.218;2023-08-08T11:30:28;2.78;;;1.60;;
78989;SDS011;68390;52.130;21.218;2023-08-08T11:32:55;5.72;;;1.60;;
78989;SDS011;68390;52.130;21.218;2023-08-08T11:35:23;7.65;;;2.10;;
78989;SDS011;68390;52.130;21.218;2023-08-08T11:37:50;5.00;;;1.67;;
78989;SDS011;68390;52.130;21.218;2023-08-08T11:40:17;4.45;;;1.77;;
78989;SDS011;68390;52.130;21.218;2023-08-08T11:42:44;5.40;;;1.70;;
78989;SDS011;68390;52.130;21.218;2023-08-08T11:45:10;3.75;;;1.60;;
78989;SDS011;68390;52.130;21.218;2023-08-08T11:47:37;3.45;;;1.63;;
78989;SDS011;68390;52.130;21.218;2023-08-08T11:50:06;3.22;;;1.55;;
78989;SDS011;68390;52.130;21.218;2023-08-08T11:52:39;3.60;;;1.60;;
78989;SDS011;68390;52.130;21.218;2023-08-08T11:55:09;3.15;;;1.55;;
78989;SDS011;68390;52.130;21.218;2023-08-08T11:57:35;3.30;;;1.60;;
78989;SDS011;68390;52.130;21.218;2023-08-08T12:00:02;2.83;;;1.60;;
78989;SDS011;68390;52.130;21.218;2023-08-08T12:02:32;2.65;;;1.55;;
78989;SDS011;68390;52.130;21.218;2023-08-08T12:05:03;6.65;;;2.15;;
78989;SDS011;68390;52.130;21.218;2023-08-08T12:07:31;3.90;;;1.40;;
78989;SDS011;68390;52.130;21.218;2023-08-08T12:09:58;3.20;;;1.60;;
78989;SDS011;68390;52.130;21.218;2023-08-08T12:12:25;3.97;;;1.67;;
78989;SDS011;68390;52.130;21.218;2023-08-08T12:14:53;3.10;;;1.40;;
78989;SDS011;68390;52.130;21.218;2023-08-08T12:17:20;3.28;;;1.50;;
78989;SDS011;68390;52.130;21.218;2023-08-08T12:19:47;2.88;;;1.40;;
78989;SDS011;68390;52.130;21.218;2023-08-08T12:22:13;4.15;;;1.60;;
78989;SDS011;68390;52.130;21.218;2023-08-08T12:24:39;2.63;;;1.40;;
78989;SDS011;68390;52.130;21.218;2023-08-08T12:27:04;5.10;;;1.40;;
78989;SDS011;68390;52.130;21.218;2023-08-08T12:29:29;3.08;;;1.60;;
78989;SDS011;68390;52.130;21.218;2023-08-08T12:31:56;5.53;;;1.65;;
78989;SDS011;68390;52.130;21.218;2023-08-08T12:34:21;4.72;;;1.70;;
78989;SDS011;68390;52.130;21.218;2023-08-08T12:36:47;5.10;;;2.30;;
78989;SDS011;68390;52.130;21.218;2023-08-08T12:39:12;2.45;;;1.45;;
78989;SDS011;68390;52.130;21.218;2023-08-08T12:41:38;4.32;;;1.60;;
78989;SDS011;68390;52.130;21.218;2023-08-08T12:44:03;5.70;;;1.70;;
78989;SDS011;68390;52.130;21.218;2023-08-08T12:46:29;3.03;;;1.90;;
78989;SDS011;68390;52.130;21.218;2023-08-08T12:48:54;3.65;;;1.33;;
78989;SDS011;68390;52.130;21.218;2023-08-08T12:51:19;4.35;;;1.67;;
78989;SDS011;68390;52.130;21.218;2023-08-08T12:53:45;4.38;;;1.42;;
78989;SDS011;68390;52.130;21.218;2023-08-08T12:56:10;5.10;;;2.72;;
78989;SDS011;68390;52.130;21.218;2023-08-08T12:58:36;2.55;;;1.50;;
78989;SDS011;68390;52.130;21.218;2023-08-08T13:01:01;2.47;;;1.40;;
78989;SDS011;68390;52.130;21.218;2023-08-08T13:03:27;3.92;;;1.42;;
78989;SDS011;68390;52.130;21.218;2023-08-08T13:05:52;4.40;;;1.55;;
78989;SDS011;68390;52.130;21.218;2023-08-08T13:08:18;3.15;;;1.55;;
78989;SDS011;68390;52.130;21.218;2023-08-08T13:10:44;6.00;;;1.50;;
78989;SDS011;68390;52.130;21.218;2023-08-08T13:13:10;3.22;;;1.42;;
78989;SDS011;68390;52.130;21.218;2023-08-08T13:15:35;2.30;;;1.30;;
78989;SDS011;68390;52.130;21.218;2023-08-08T13:18:01;3.30;;;1.65;;
78989;SDS011;68390;52.130;21.218;2023-08-08T13:20:26;2.40;;;1.40;;
78989;SDS011;68390;52.130;21.218;2023-08-08T13:22:52;3.58;;;1.60;;
78989;SDS011;68390;52.130;21.218;2023-08-08T13:25:17;2.80;;;1.50;;
78989;SDS011;68390;52.130;21.218;2023-08-08T13:27:44;2.97;;;1.40;;
78989;SDS011;68390;52.130;21.218;2023-08-08T13:30:10;2.63;;;1.50;;
78989;SDS011;68390;52.130;21.218;2023-08-08T13:32:36;2.80;;;1.50;;
78989;SDS011;68390;52.130;21.218;2023-08-08T13:35:01;3.30;;;1.60;;
78989;SDS011;68390;52.130;21.218;2023-08-08T13:37:26;3.05;;;1.80;;
78989;SDS011;68390;52.130;21.218;2023-08-08T13:39:52;3.33;;;1.60;;
78989;SDS011;68390;52.130;21.218;2023-08-08T13:42:17;4.43;;;1.67;;
78989;SDS011;68390;52.130;21.218;2023-08-08T13:44:42;3.50;;;1.50;;
78989;SDS011;68390;52.130;21.218;2023-08-08T13:47:08;3.00;;;1.60;;
78989;SDS011;68390;52.130;21.218;2023-08-08T13:49:33;3.60;;;1.60;;
78989;SDS011;68390;52.130;21.218;2023-08-08T13:52:00;3.67;;;1.70;;
78989;SDS011;68390;52.130;21.218;2023-08-08T13:54:26;3.90;;;1.50;;
78989;SDS011;68390;52.130;21.218;2023-08-08T13:56:51;4.18;;;1.52;;
78989;SDS011;68390;52.130;21.218;2023-08-08T13:59:17;3.13;;;1.50;;
78989;SDS011;68390;52.130;21.218;2023-08-08T14:01:42;4.00;;;1.60;;
78989;SDS011;68390;52.130;21.218;2023-08-08T14:04:07;2.67;;;1.50;;
78989;SDS011;68390;52.130;21.218;2023-08-08T14:06:33;2.77;;;1.50;;
78989;SDS011;68390;52.130;21.218;2023-08-08T14:08:58;3.30;;;1.70;;
78989;SDS011;68390;52.130;21.218;2023-08-08T14:11:23;2.63;;;1.47;;
78989;SDS011;68390;52.130;21.218;2023-08-08T14:13:49;6.05;;;1.80;;
78989;SDS011;68390;52.130;21.218;2023-08-08T14:16:14;4.95;;;1.63;;
78989;SDS011;68390;52.130;21.218;2023-08-08T14:18:39;3.90;;;1.70;;
78989;SDS011;68390;52.130;21.218;2023-08-08T14:21:05;3.53;;;1.50;;
78989;SDS011;68390;52.130;21.218;2023-08-08T14:23:31;3.25;;;1.70;;
78989;SDS011;68390;52.130;21.218;2023-08-08T14:25:56;4.90;;;1.60;;
78989;SDS011;68390;52.130;21.218;2023-08-08T14:28:22;3.45;;;1.60;;
78989;SDS011;68390;52.130;21.218;2023-08-08T14:30:47;3.28;;;1.65;;